ウラジオストク の空港の天気 - METARとTAF

ウラジオストク空港 ( UHWW / VVO ) - ロシア ウラジオストク
飛行場実況気象(Metar)
観測時間08/15 05:30 VLAT (08/14 19:30 UTC)
風向・風速静穏 0m/s
視程10km以上
天気現象
全天の8割程度の雲 雲底高度 490m
気温21℃
湿度100%
気圧1000hPa
METARUHWW 141930Z 00000MPS 9999 BKN016CB 21/21 Q1000 R25L/19//65 NOSIG RMK QFE749
過去の天気等 Google飛行場航空写真 Wunderground天気予報

過去48時間のMETAR

飛行場予報(TAF)
発表時間: 8/15 03:00 VLAT (8/14 17:00 UTC)
予報対象時間: 15日4時 VLAT ~ 16日4時 VLAT
風向・風速南西 3m/s
視程10km以上
全天の8割程度の雲 雲底高度 490m
全天の8割程度の積乱雲 雲底高度 610m
15日4時 VLAT ~ 15日9時 VLAT に一時的に
風向・風速不定 1m/s
視程500m
天気現象
全天を覆う雲 鉛直視程 60m
15日10時 VLAT ~ 15日19時 VLAT に一時的に
風向・風速西南西 8m/s
天気現象弱いしゅう雨
TAF UHWW 141700Z 1418/1518 22003MPS 9999 BKN016 BKN020CB
TEMPO 1418/1423 VRB01MPS 0500 FG VV002
TEMPO 1500/1509 24008MPS -SHRA